AXM6041 WMKK-WMKJ
Flight info
| Callsign | AXM6041 |
|---|---|
| Flight time | N/A |
| Altitude | 21000 |
| Route | RUSBU1E/32L RUSBU Y511 TOPOR W534 EMTUV |
| Aircraft | A20N/M-SDE2E3FGHIRWXY/LB1 |
Departure
| Time | N/A |
|---|---|
| Airport | Kuala Lumpur International Airport (WMKK) |
Arrival
| Time | 2026-04-20 15:47 |
|---|---|
| Airport | Senai International Airport (WMKJ) |
| Time | Latitude | Longitude | Altitude | Speed | Heading |
|---|---|---|---|---|---|
| 2026-04-20 15:24 | 2.05785 | 101.99012 | 20882 ft | 472 kts | 119° |
| 2026-04-20 15:24 | 2.04632 | 102.02079 | 20883 ft | 475 kts | 104° |
| 2026-04-20 15:24 | 2.04212 | 102.05338 | 20894 ft | 477 kts | 95° |
| 2026-04-20 15:24 | 2.04062 | 102.08659 | 20893 ft | 477 kts | 93° |
| 2026-04-20 15:25 | 2.03956 | 102.11961 | 20892 ft | 477 kts | 93° |
| 2026-04-20 15:25 | 2.03847 | 102.15291 | 20892 ft | 477 kts | 93° |
| 2026-04-20 15:25 | 2.03725 | 102.18614 | 20892 ft | 477 kts | 93° |
| 2026-04-20 15:25 | 2.03595 | 102.21886 | 20892 ft | 477 kts | 93° |
| 2026-04-20 15:26 | 2.03454 | 102.25238 | 20892 ft | 477 kts | 94° |
| 2026-04-20 15:26 | 2.03313 | 102.28515 | 20892 ft | 477 kts | 94° |
| 2026-04-20 15:26 | 2.03167 | 102.31851 | 20892 ft | 477 kts | 94° |
| 2026-04-20 15:26 | 2.03022 | 102.35140 | 20892 ft | 477 kts | 94° |
| 2026-04-20 15:27 | 2.02876 | 102.38441 | 20892 ft | 477 kts | 94° |
| 2026-04-20 15:27 | 2.02731 | 102.41737 | 20892 ft | 477 kts | 94° |
| 2026-04-20 15:27 | 2.02584 | 102.45085 | 20892 ft | 477 kts | 94° |
| 2026-04-20 15:27 | 2.02273 | 102.48367 | 20886 ft | 476 kts | 102° |
| 2026-04-20 15:28 | 2.01364 | 102.51534 | 20891 ft | 474 kts | 113° |
| 2026-04-20 15:28 | 1.99870 | 102.54434 | 20892 ft | 472 kts | 124° |
| 2026-04-20 15:28 | 1.97975 | 102.57082 | 20896 ft | 471 kts | 128° |
| 2026-04-20 15:28 | 1.95977 | 102.59694 | 20894 ft | 471 kts | 129° |
| 2026-04-20 15:29 | 1.93982 | 102.62278 | 20893 ft | 471 kts | 129° |
| 2026-04-20 15:29 | 1.91991 | 102.64873 | 20892 ft | 471 kts | 129° |
| 2026-04-20 15:29 | 1.90027 | 102.67461 | 20892 ft | 471 kts | 128° |
| 2026-04-20 15:29 | 1.88088 | 102.70025 | 20886 ft | 456 kts | 128° |
| 2026-04-20 15:30 | 1.86211 | 102.72508 | 20664 ft | 442 kts | 128° |
| 2026-04-20 15:30 | 1.84387 | 102.74922 | 20195 ft | 433 kts | 128° |
| 2026-04-20 15:30 | 1.82586 | 102.77312 | 19693 ft | 425 kts | 128° |
| 2026-04-20 15:30 | 1.80844 | 102.79623 | 19187 ft | 418 kts | 128° |
| 2026-04-20 15:31 | 1.79096 | 102.81945 | 18685 ft | 412 kts | 128° |
| 2026-04-20 15:31 | 1.77411 | 102.84183 | 18205 ft | 406 kts | 128° |
| 2026-04-20 15:31 | 1.75714 | 102.86437 | 17727 ft | 399 kts | 128° |
| 2026-04-20 15:31 | 1.74111 | 102.88631 | 17265 ft | 394 kts | 123° |
| 2026-04-20 15:32 | 1.73114 | 102.91142 | 16774 ft | 392 kts | 102° |
| 2026-04-20 15:32 | 1.72825 | 102.93845 | 16350 ft | 386 kts | 94° |
| 2026-04-20 15:32 | 1.72708 | 102.96491 | 15931 ft | 381 kts | 93° |
| 2026-04-20 15:32 | 1.72579 | 102.99109 | 15518 ft | 375 kts | 94° |
| 2026-04-20 15:33 | 1.72410 | 103.01704 | 15113 ft | 369 kts | 95° |
| 2026-04-20 15:33 | 1.72212 | 103.04246 | 14719 ft | 364 kts | 95° |
| 2026-04-20 15:33 | 1.71997 | 103.06738 | 14338 ft | 358 kts | 96° |
| 2026-04-20 15:33 | 1.71776 | 103.09172 | 13969 ft | 353 kts | 96° |
| 2026-04-20 15:34 | 1.71551 | 103.11598 | 13605 ft | 348 kts | 96° |
| 2026-04-20 15:34 | 1.71327 | 103.13990 | 13250 ft | 343 kts | 96° |
| 2026-04-20 15:34 | 1.71106 | 103.16329 | 12906 ft | 338 kts | 96° |
| 2026-04-20 15:34 | 1.70885 | 103.18675 | 12566 ft | 333 kts | 96° |
| 2026-04-20 15:35 | 1.70671 | 103.20937 | 12239 ft | 329 kts | 96° |
| 2026-04-20 15:35 | 1.70457 | 103.23200 | 11916 ft | 324 kts | 96° |
| 2026-04-20 15:35 | 1.70248 | 103.25403 | 11604 ft | 319 kts | 96° |
| 2026-04-20 15:35 | 1.70038 | 103.27618 | 11291 ft | 314 kts | 95° |
| 2026-04-20 15:36 | 1.69824 | 103.29775 | 10986 ft | 310 kts | 98° |
| 2026-04-20 15:36 | 1.69368 | 103.31846 | 10684 ft | 305 kts | 107° |
| 2026-04-20 15:36 | 1.68755 | 103.33839 | 10393 ft | 300 kts | 108° |
| 2026-04-20 15:36 | 1.68117 | 103.35805 | 10103 ft | 296 kts | 108° |
| 2026-04-20 15:37 | 1.67486 | 103.37754 | 9816 ft | 292 kts | 108° |
| 2026-04-20 15:37 | 1.66868 | 103.39685 | 9532 ft | 287 kts | 108° |
| 2026-04-20 15:37 | 1.66273 | 103.41564 | 9255 ft | 283 kts | 107° |
| 2026-04-20 15:37 | 1.65690 | 103.43420 | 8982 ft | 279 kts | 107° |
| 2026-04-20 15:38 | 1.65136 | 103.45184 | 8722 ft | 275 kts | 107° |
| 2026-04-20 15:38 | 1.64565 | 103.47007 | 8453 ft | 270 kts | 107° |
| 2026-04-20 15:38 | 1.64009 | 103.48786 | 8191 ft | 266 kts | 107° |
| 2026-04-20 15:38 | 1.63466 | 103.50523 | 7935 ft | 262 kts | 107° |
| 2026-04-20 15:39 | 1.62928 | 103.52245 | 7682 ft | 258 kts | 107° |
| 2026-04-20 15:39 | 1.62391 | 103.53961 | 7427 ft | 254 kts | 107° |
| 2026-04-20 15:39 | 1.61868 | 103.55636 | 7171 ft | 251 kts | 107° |
| 2026-04-20 15:39 | 1.61359 | 103.57267 | 6884 ft | 249 kts | 107° |
| 2026-04-20 15:40 | 1.60837 | 103.58935 | 6582 ft | 248 kts | 107° |
| 2026-04-20 15:40 | 1.60330 | 103.60560 | 6290 ft | 246 kts | 107° |
| 2026-04-20 15:40 | 1.59818 | 103.62195 | 5995 ft | 244 kts | 107° |
| 2026-04-20 15:40 | 1.59320 | 103.63789 | 5704 ft | 243 kts | 106° |
| 2026-04-20 15:41 | 1.58814 | 103.65412 | 5401 ft | 242 kts | 106° |
| 2026-04-20 15:41 | 1.58120 | 103.66918 | 5079 ft | 242 kts | 132° |
| 2026-04-20 15:41 | 1.56713 | 103.67775 | 4775 ft | 239 kts | 172° |
| 2026-04-20 15:41 | 1.55094 | 103.67632 | 4483 ft | 235 kts | 204° |
| 2026-04-20 15:42 | 1.53776 | 103.66742 | 4200 ft | 232 kts | 226° |
| 2026-04-20 15:42 | 1.52599 | 103.65655 | 3885 ft | 233 kts | 212° |
| 2026-04-20 15:42 | 1.51044 | 103.65273 | 3486 ft | 237 kts | 171° |
| 2026-04-20 15:42 | 1.49596 | 103.65992 | 3127 ft | 236 kts | 129° |
| 2026-04-20 15:43 | 1.48977 | 103.67449 | 2875 ft | 226 kts | 87° |
| 2026-04-20 15:43 | 1.49439 | 103.68870 | 2615 ft | 218 kts | 47° |
| 2026-04-20 15:43 | 1.50622 | 103.69798 | 2181 ft | 216 kts | 26° |
| 2026-04-20 15:43 | 1.51980 | 103.70322 | 1915 ft | 203 kts | 6° |
| 2026-04-20 15:44 | 1.53356 | 103.70226 | 1803 ft | 196 kts | 349° |
| 2026-04-20 15:44 | 1.54636 | 103.69963 | 1676 ft | 182 kts | 350° |
| 2026-04-20 15:44 | 1.55835 | 103.69741 | 1443 ft | 170 kts | 348° |
| 2026-04-20 15:44 | 1.56941 | 103.69467 | 1211 ft | 158 kts | 345° |
| 2026-04-20 15:45 | 1.57989 | 103.69154 | 1033 ft | 156 kts | 341° |
| 2026-04-20 15:45 | 1.58996 | 103.68792 | 826 ft | 156 kts | 339° |
| 2026-04-20 15:45 | 1.60011 | 103.68410 | 626 ft | 156 kts | 340° |
| 2026-04-20 15:45 | 1.61034 | 103.68036 | 433 ft | 156 kts | 340° |
| 2026-04-20 15:46 | 1.62041 | 103.67671 | 265 ft | 155 kts | 340° |
| 2026-04-20 15:46 | 1.63061 | 103.67299 | 159 ft | 154 kts | 339° |
| 2026-04-20 15:46 | 1.63984 | 103.66965 | 142 ft | 121 kts | 340° |
| 2026-04-20 15:46 | 1.64615 | 103.66735 | 142 ft | 72 kts | 340° |
| 2026-04-20 15:47 | 1.64953 | 103.66612 | 142 ft | 42 kts | 340° |
| 2026-04-20 15:47 | 1.65222 | 103.66515 | 142 ft | 39 kts | 340° |
| 2026-04-20 15:47 | 1.65448 | 103.66454 | 142 ft | 26 kts | 349° |
| 2026-04-20 15:47 | 1.65497 | 103.66402 | 142 ft | 7 kts | 171° |
| 2026-04-20 15:48 | 1.65435 | 103.66434 | 142 ft | 19 kts | 154° |
| 2026-04-20 15:48 | 1.65246 | 103.66502 | 142 ft | 37 kts | 160° |
| 2026-04-20 15:48 | 1.64952 | 103.66612 | 142 ft | 53 kts | 161° |
| 2026-04-20 15:48 | 1.64627 | 103.66730 | 142 ft | 54 kts | 160° |
| 2026-04-20 15:49 | 1.64347 | 103.66829 | 142 ft | 23 kts | 172° |
| 2026-04-20 15:49 | 1.64275 | 103.66761 | 142 ft | 12 kts | 252° |
| 2026-04-20 15:49 | 1.64222 | 103.66705 | 142 ft | 12 kts | 183° |
| 2026-04-20 15:49 | 1.64138 | 103.66727 | 142 ft | 12 kts | 160° |
| 2026-04-20 15:50 | 1.64052 | 103.66760 | 142 ft | 13 kts | 160° |
| 2026-04-20 15:50 | 1.63945 | 103.66798 | 142 ft | 21 kts | 160° |
| 2026-04-20 15:50 | 1.63789 | 103.66856 | 142 ft | 24 kts | 160° |
| 2026-04-20 15:50 | 1.63674 | 103.66845 | 142 ft | 9 kts | 237° |
| 2026-04-20 15:51 | 1.63624 | 103.66824 | 142 ft | 8 kts | 168° |
| 2026-04-20 15:51 | 1.63573 | 103.66834 | 142 ft | 5 kts | 212° |
| 2026-04-20 15:51 | 1.63559 | 103.66800 | 142 ft | 4 kts | 249° |
| 2026-04-20 15:51 | 1.63549 | 103.66773 | 142 ft | 1 kts | 251° |
| 2026-04-20 15:52 | 1.63547 | 103.66766 | 142 ft | 0 kts | 251° |